Time;durP1;ratioP1;P1;durP2;ratioP2;P2;SDS_P1;SDS_P2;PMS_P1;PMS_P2;Temp;Humidity;BMP_temperature;BMP_pressure;BME280_temperature;BME280_humidity;BME280_pressure;Samples;Min_cycle;Max_cycle;Signal;HPM_P1;HPM_P2
2020/12/20 00:00:10;;;;;;;36.03;21.25;;;;;;;;;;5094146;28;20078;-66
2020/12/20 00:06:11;;;;;;;43.55;23.98;;;;;;;;;;5093833;28;20090;-66
2020/12/20 00:12:12;;;;;;;44.25;23.80;;;;;;;;;;5093983;28;20027;-67
2020/12/20 00:18:12;;;;;;;37.65;22.70;;;;;;;;;;5093771;28;20102;-67
2020/12/20 00:28:03;;;;;;;53.00;28.05;;;;;;;;;;5093849;28;20093;-67
2020/12/20 00:34:05;;;;;;;52.60;28.45;;;;;;;;;;5097922;28;20046;-68
2020/12/20 00:40:06;;;;;;;44.10;25.85;;;;;;;;;;5097827;28;20043;-67
2020/12/20 00:46:07;;;;;;;96.03;51.55;;;;;;;;;;5097728;28;20026;-66
2020/12/20 00:55:30;;;;;;;49.03;25.70;;;;;;;;;;5117775;28;20390;-66
2020/12/20 01:01:31;;;;;;;45.97;27.67;;;;;;;;;;5117608;28;20119;-66
2020/12/20 01:07:32;;;;;;;39.53;23.20;;;;;;;;;;5117744;28;20034;-67
2020/12/20 01:13:33;;;;;;;61.13;38.72;;;;;;;;;;5117668;28;20030;-65
2020/12/20 01:23:09;;;;;;;39.67;25.20;;;;;;;;;;5117493;28;20026;-65
2020/12/20 01:29:10;;;;;;;46.33;27.67;;;;;;;;;;5117389;28;20381;-65
2020/12/20 01:35:12;;;;;;;46.00;26.95;;;;;;;;;;5117239;28;20042;-65
2020/12/20 01:41:14;;;;;;;41.47;26.50;;;;;;;;;;5117115;28;20081;-65
2020/12/20 01:47:17;;;;;;;40.70;25.42;;;;;;;;;;5117025;28;20022;-66
2020/12/20 02:07:12;;;;;;;44.55;25.25;;;;;;;;;;5116603;28;20076;-67
2020/12/20 02:13:16;;;;;;;48.13;26.23;;;;;;;;;;5116223;28;20027;-66
2020/12/20 02:19:21;;;;;;;42.17;26.10;;;;;;;;;;5116103;28;20034;-66
2020/12/20 02:25:28;;;;;;;64.20;34.20;;;;;;;;;;5116273;28;20030;-67
2020/12/20 02:35:42;;;;;;;55.38;30.88;;;;;;;;;;5073375;28;20086;-66
2020/12/20 02:41:42;;;;;;;51.60;29.85;;;;;;;;;;5073274;28;20123;-66
2020/12/20 02:51:49;;;;;;;46.75;27.20;;;;;;;;;;5073061;28;20616;-65
2020/12/20 03:01:25;;;;;;;49.63;28.35;;;;;;;;;;5115434;28;20076;-66
2020/12/20 03:07:40;;;;;;;47.10;27.85;;;;;;;;;;5115453;28;20076;-66
2020/12/20 03:13:55;;;;;;;46.70;27.52;;;;;;;;;;5115323;28;20104;-66
2020/12/20 03:19:55;;;;;;;50.38;28.95;;;;;;;;;;5115200;28;20088;-67
2020/12/20 03:25:56;;;;;;;42.80;25.80;;;;;;;;;;5114859;28;20562;-67
2020/12/20 03:32:15;;;;;;;41.55;25.67;;;;;;;;;;5115007;28;20027;-67
2020/12/20 03:38:23;;;;;;;38.40;23.92;;;;;;;;;;5114679;28;20088;-68
2020/12/20 03:44:25;;;;;;;42.05;25.65;;;;;;;;;;5114772;28;20034;-66
2020/12/20 03:50:32;;;;;;;36.83;24.38;;;;;;;;;;5114723;28;20057;-65
2020/12/20 04:11:03;;;;;;;36.90;22.55;;;;;;;;;;5051785;28;20059;-66
2020/12/20 04:17:03;;;;;;;39.90;21.88;;;;;;;;;;5051712;28;20119;-67
2020/12/20 04:27:01;;;;;;;39.65;23.30;;;;;;;;;;5051413;28;20525;-67
2020/12/20 04:37:17;;;;;;;36.17;22.17;;;;;;;;;;5031667;28;20061;-66
2020/12/20 04:43:36;;;;;;;34.97;21.42;;;;;;;;;;5031461;28;20084;-67
2020/12/20 04:53:25;;;;;;;30.27;19.85;;;;;;;;;;5031505;28;20060;-66
2020/12/20 05:03:33;;;;;;;30.50;19.77;;;;;;;;;;5113736;28;20085;-66
2020/12/20 05:31:08;;;;;;;32.40;20.50;;;;;;;;;;5054374;28;20047;-72
2020/12/20 05:41:17;;;;;;;30.95;20.40;;;;;;;;;;5014875;28;20400;-71
2020/12/20 05:47:22;;;;;;;34.33;21.08;;;;;;;;;;5074365;28;20059;-72
2020/12/20 05:53:24;;;;;;;32.83;21.08;;;;;;;;;;5074260;28;20054;-72
2020/12/20 06:02:59;;;;;;;36.60;22.33;;;;;;;;;;5054170;28;20511;-72
2020/12/20 06:08:59;;;;;;;37.53;24.95;;;;;;;;;;5053953;28;20116;-71
2020/12/20 06:15:02;;;;;;;47.30;29.23;;;;;;;;;;5096077;28;20027;-72
2020/12/20 06:21:03;;;;;;;58.55;33.72;;;;;;;;;;5096076;28;20092;-72
2020/12/20 07:03:40;;;;;;;31.13;16.00;;;;;;;;;;5109961;28;20105;-70
2020/12/20 07:06:10;;;;;;;34.85;17.92;;;;;;;;;;5074818;28;20060;-70
2020/12/20 07:08:36;;;;;;;34.67;16.85;;;;;;;;;;5093464;28;20040;-70
2020/12/20 07:11:06;;;;;;;38.70;19.75;;;;;;;;;;5093319;28;20115;-70
2020/12/20 07:13:37;;;;;;;46.03;24.20;;;;;;;;;;5093179;28;20040;-70
2020/12/20 07:16:06;;;;;;;38.83;19.70;;;;;;;;;;5074764;28;20449;-70
2020/12/20 07:18:42;;;;;;;36.50;17.83;;;;;;;;;;5092979;28;20494;-70
2020/12/20 07:21:12;;;;;;;33.63;19.10;;;;;;;;;;5074771;28;20486;-70
2020/12/20 07:23:39;;;;;;;32.22;18.48;;;;;;;;;;5058353;28;20032;-68
2020/12/20 07:26:04;;;;;;;39.30;21.35;;;;;;;;;;5074940;28;20089;-69
2020/12/20 07:28:30;;;;;;;34.00;18.65;;;;;;;;;;5074929;28;20486;-69
2020/12/20 07:30:55;;;;;;;30.52;17.58;;;;;;;;;;5058210;28;20085;-69
2020/12/20 07:33:21;;;;;;;40.67;21.88;;;;;;;;;;5074708;28;20530;-69
2020/12/20 07:35:47;;;;;;;41.83;25.10;;;;;;;;;;5093167;28;20034;-69
2020/12/20 07:38:13;;;;;;;48.05;28.88;;;;;;;;;;5092613;28;20036;-69
2020/12/20 07:40:39;;;;;;;45.78;26.92;;;;;;;;;;5092549;28;20038;-69
2020/12/20 07:43:05;;;;;;;37.13;22.17;;;;;;;;;;5092128;28;20111;-69
2020/12/20 07:45:31;;;;;;;35.50;21.23;;;;;;;;;;5092606;28;20024;-69
2020/12/20 07:47:57;;;;;;;38.22;22.48;;;;;;;;;;5075115;28;20039;-69
2020/12/20 07:50:26;;;;;;;33.85;16.85;;;;;;;;;;5092726;28;20020;-68
2020/12/20 07:52:53;;;;;;;31.98;16.42;;;;;;;;;;5093024;28;20126;-67
2020/12/20 07:55:18;;;;;;;31.38;16.05;;;;;;;;;;5074775;28;20067;-67
2020/12/20 07:57:48;;;;;;;27.08;13.35;;;;;;;;;;5093069;28;20032;-67
2020/12/20 08:00:17;;;;;;;32.80;19.88;;;;;;;;;;5092860;28;20032;-70
2020/12/20 08:02:42;;;;;;;38.40;22.42;;;;;;;;;;5092636;28;20043;-70
2020/12/20 08:05:10;;;;;;;31.13;18.58;;;;;;;;;;5073297;28;20032;-70
2020/12/20 08:07:36;;;;;;;18.02;11.55;;;;;;;;;;5093040;28;20047;-70
2020/12/20 08:10:02;;;;;;;17.17;11.15;;;;;;;;;;5093062;28;20028;-70
2020/12/20 08:12:28;;;;;;;16.85;11.55;;;;;;;;;;5092552;28;20031;-69
2020/12/20 08:15:00;;;;;;;16.95;11.35;;;;;;;;;;5092877;28;20112;-68
2020/12/20 08:17:27;;;;;;;18.98;12.75;;;;;;;;;;5092773;28;20134;-70
2020/12/20 08:19:53;;;;;;;16.52;11.70;;;;;;;;;;5092998;28;20082;-71
2020/12/20 08:22:20;;;;;;;18.88;12.70;;;;;;;;;;5093672;28;20036;-70
2020/12/20 08:24:46;;;;;;;24.23;14.90;;;;;;;;;;5075273;28;20023;-70
2020/12/20 08:27:16;;;;;;;24.80;15.55;;;;;;;;;;5093208;28;20044;-62
2020/12/20 08:29:43;;;;;;;25.58;16.10;;;;;;;;;;5093248;28;20090;-62
2020/12/20 08:32:10;;;;;;;26.02;16.50;;;;;;;;;;5093484;28;20028;-62
2020/12/20 08:34:36;;;;;;;29.50;17.50;;;;;;;;;;5093514;28;20036;-62
2020/12/20 08:37:07;;;;;;;28.70;17.48;;;;;;;;;;5093527;28;20101;-63
2020/12/20 08:39:32;;;;;;;37.22;20.73;;;;;;;;;;5092164;28;20043;-62
2020/12/20 08:42:08;;;;;;;25.17;15.80;;;;;;;;;;5091783;28;20029;-62
2020/12/20 08:44:34;;;;;;;27.33;16.88;;;;;;;;;;5073531;28;20056;-62
2020/12/20 08:47:10;;;;;;;28.50;17.48;;;;;;;;;;5091036;28;20055;-62
2020/12/20 08:49:36;;;;;;;27.52;17.08;;;;;;;;;;5092288;28;20400;-63
2020/12/20 08:52:05;;;;;;;30.10;18.70;;;;;;;;;;5092070;28;20031;-63
2020/12/20 08:54:31;;;;;;;33.90;19.80;;;;;;;;;;5095905;28;20032;-62
2020/12/20 08:56:57;;;;;;;25.77;16.40;;;;;;;;;;5096836;28;20028;-63
2020/12/20 08:59:30;;;;;;;28.23;16.52;;;;;;;;;;5097087;28;20099;-62
2020/12/20 09:01:58;;;;;;;29.08;17.40;;;;;;;;;;5096590;28;20036;-63
2020/12/20 09:04:23;;;;;;;22.13;14.82;;;;;;;;;;5096596;28;20374;-69
2020/12/20 09:07:00;;;;;;;29.83;18.15;;;;;;;;;;5096760;28;20044;-69
2020/12/20 09:09:26;;;;;;;31.98;19.25;;;;;;;;;;5096467;28;20035;-69
2020/12/20 09:11:51;;;;;;;38.08;21.13;;;;;;;;;;5096504;28;20359;-69
2020/12/20 09:14:17;;;;;;;55.50;37.08;;;;;;;;;;5096414;28;20047;-69
2020/12/20 09:16:42;;;;;;;49.80;32.63;;;;;;;;;;5096355;28;20035;-69
2020/12/20 09:19:09;;;;;;;27.05;17.30;;;;;;;;;;5096312;28;20127;-69
2020/12/20 09:21:34;;;;;;;38.28;20.85;;;;;;;;;;5096358;28;20043;-69
2020/12/20 09:24:00;;;;;;;50.50;27.23;;;;;;;;;;5096375;28;20478;-69
2020/12/20 09:26:25;;;;;;;78.25;40.78;;;;;;;;;;5096181;28;20032;-69
2020/12/20 09:28:51;;;;;;;52.10;26.05;;;;;;;;;;5096082;28;20040;-69
2020/12/20 09:31:19;;;;;;;45.85;24.67;;;;;;;;;;5096184;28;20097;-69
2020/12/20 09:33:47;;;;;;;36.40;20.98;;;;;;;;;;5078453;28;20123;-69
2020/12/20 09:36:22;;;;;;;39.60;23.23;;;;;;;;;;5096191;28;20063;-69
2020/12/20 09:38:50;;;;;;;48.90;25.63;;;;;;;;;;5095873;28;20039;-69
2020/12/20 09:41:16;;;;;;;46.03;25.52;;;;;;;;;;5095939;28;20054;-69
2020/12/20 09:43:43;;;;;;;47.33;26.60;;;;;;;;;;5095866;28;20042;-69
2020/12/20 09:46:09;;;;;;;34.00;19.42;;;;;;;;;;5095913;28;20024;-69
2020/12/20 09:48:35;;;;;;;34.50;20.10;;;;;;;;;;5077696;28;20036;-69
2020/12/20 09:51:00;;;;;;;32.65;19.67;;;;;;;;;;5095669;28;20032;-69
2020/12/20 09:53:26;;;;;;;41.03;22.40;;;;;;;;;;5095867;28;20395;-69
2020/12/20 09:55:51;;;;;;;44.03;25.50;;;;;;;;;;5077687;28;20036;-69
2020/12/20 09:58:19;;;;;;;40.58;21.70;;;;;;;;;;5095658;28;20036;-69
2020/12/20 10:00:45;;;;;;;44.70;24.63;;;;;;;;;;5095566;28;20035;-69
2020/12/20 10:03:11;;;;;;;47.75;26.88;;;;;;;;;;5095655;28;20478;-69
2020/12/20 10:05:39;;;;;;;46.38;26.80;;;;;;;;;;5094248;28;20055;-69
2020/12/20 10:08:05;;;;;;;50.58;27.85;;;;;;;;;;5095404;28;20036;-69
2020/12/20 10:10:31;;;;;;;52.00;32.63;;;;;;;;;;5095425;28;20028;-69
2020/12/20 10:12:57;;;;;;;67.45;40.20;;;;;;;;;;5095352;28;20131;-69
2020/12/20 10:15:24;;;;;;;53.22;31.00;;;;;;;;;;5095408;28;20059;-69
2020/12/20 10:17:49;;;;;;;44.35;26.58;;;;;;;;;;5095200;28;20090;-69
2020/12/20 10:20:15;;;;;;;48.95;28.67;;;;;;;;;;5095301;28;20024;-69
2020/12/20 10:22:41;;;;;;;47.38;27.48;;;;;;;;;;5094956;28;20113;-69
2020/12/20 10:25:07;;;;;;;46.58;25.50;;;;;;;;;;5095072;28;20028;-69
2020/12/20 10:27:33;;;;;;;42.42;23.55;;;;;;;;;;5094965;28;20509;-69
2020/12/20 10:29:58;;;;;;;38.85;21.75;;;;;;;;;;5076886;28;20120;-69
2020/12/20 10:32:24;;;;;;;44.75;24.65;;;;;;;;;;5095017;28;20059;-69
2020/12/20 10:34:49;;;;;;;43.35;24.58;;;;;;;;;;5095167;28;20470;-72
2020/12/20 10:37:15;;;;;;;49.00;28.70;;;;;;;;;;5092894;28;20058;-72
2020/12/20 10:39:41;;;;;;;54.53;30.08;;;;;;;;;;5091431;28;20551;-72
2020/12/20 10:42:07;;;;;;;41.97;25.10;;;;;;;;;;5092666;28;20028;-72
2020/12/20 10:44:32;;;;;;;49.08;26.15;;;;;;;;;;5093359;28;20021;-72
2020/12/20 10:46:58;;;;;;;50.90;30.67;;;;;;;;;;5093512;28;20127;-72
2020/12/20 10:49:23;;;;;;;42.55;25.30;;;;;;;;;;5094104;28;20041;-73
2020/12/20 10:51:56;;;;;;;37.33;22.52;;;;;;;;;;5094076;28;20367;-73
2020/12/20 10:54:22;;;;;;;29.63;18.77;;;;;;;;;;5076461;28;20051;-73
2020/12/20 10:56:48;;;;;;;28.80;19.83;;;;;;;;;;5059922;28;20032;-72
2020/12/20 10:59:14;;;;;;;39.20;22.30;;;;;;;;;;5094506;28;20505;-72
2020/12/20 11:01:39;;;;;;;38.60;22.88;;;;;;;;;;5094437;28;20051;-72
2020/12/20 11:04:05;;;;;;;33.95;21.48;;;;;;;;;;5076263;28;20036;-72
2020/12/20 11:06:30;;;;;;;30.92;20.25;;;;;;;;;;5094221;28;20397;-72
2020/12/20 11:08:56;;;;;;;34.40;21.65;;;;;;;;;;5076292;28;20036;-72
2020/12/20 11:11:27;;;;;;;32.58;20.63;;;;;;;;;;5094100;28;20106;-72
2020/12/20 11:13:53;;;;;;;34.72;21.17;;;;;;;;;;5094197;28;20124;-72
2020/12/20 11:16:18;;;;;;;33.97;21.75;;;;;;;;;;5075668;28;20111;-73
2020/12/20 11:18:45;;;;;;;41.13;24.05;;;;;;;;;;5094159;28;20394;-72
2020/12/20 11:21:14;;;;;;;39.50;25.70;;;;;;;;;;5094227;28;20032;-72
2020/12/20 11:23:39;;;;;;;50.28;29.48;;;;;;;;;;5094169;28;20032;-72
2020/12/20 11:26:15;;;;;;;56.45;33.78;;;;;;;;;;5093916;28;20074;-72
2020/12/20 11:28:41;;;;;;;63.88;37.40;;;;;;;;;;5075934;28;20063;-72
2020/12/20 11:31:08;;;;;;;59.17;32.65;;;;;;;;;;5075895;28;20035;-73
2020/12/20 11:33:33;;;;;;;46.05;28.55;;;;;;;;;;5093986;28;20044;-73
2020/12/20 11:36:00;;;;;;;51.00;31.17;;;;;;;;;;5093897;28;20093;-72
2020/12/20 11:38:25;;;;;;;83.80;55.05;;;;;;;;;;5093620;28;20463;-73
2020/12/20 11:40:52;;;;;;;48.20;29.90;;;;;;;;;;5093436;28;20060;-72
2020/12/20 11:43:18;;;;;;;57.13;36.53;;;;;;;;;;5075703;28;20032;-72
2020/12/20 11:45:45;;;;;;;56.67;35.42;;;;;;;;;;5093620;28;20541;-72
2020/12/20 11:48:12;;;;;;;54.33;33.50;;;;;;;;;;5075505;28;20036;-73
2020/12/20 11:50:37;;;;;;;53.35;32.50;;;;;;;;;;5075489;28;20402;-73
2020/12/20 11:53:03;;;;;;;49.58;29.13;;;;;;;;;;5093538;28;20032;-72
2020/12/20 11:55:29;;;;;;;62.55;35.05;;;;;;;;;;5093603;28;20470;-73
2020/12/20 11:57:55;;;;;;;52.65;33.20;;;;;;;;;;5075285;28;20123;-72
2020/12/20 12:00:20;;;;;;;66.20;39.10;;;;;;;;;;5093401;28;20112;-72
2020/12/20 12:02:46;;;;;;;71.13;45.53;;;;;;;;;;5093437;28;20085;-72
2020/12/20 12:05:12;;;;;;;66.25;43.00;;;;;;;;;;5092852;28;20490;-72
2020/12/20 12:07:37;;;;;;;45.47;27.27;;;;;;;;;;5093126;28;20028;-72
2020/12/20 12:10:03;;;;;;;41.63;24.70;;;;;;;;;;5093308;28;20024;-72
2020/12/20 12:12:28;;;;;;;43.60;27.05;;;;;;;;;;5074979;28;20060;-73
2020/12/20 12:14:53;;;;;;;46.40;26.27;;;;;;;;;;5093205;28;20462;-72
2020/12/20 12:17:19;;;;;;;47.95;25.83;;;;;;;;;;5093088;28;20359;-73
2020/12/20 12:19:44;;;;;;;38.72;23.88;;;;;;;;;;5093163;28;20050;-72
2020/12/20 12:22:10;;;;;;;37.47;23.92;;;;;;;;;;5093258;28;20036;-72
2020/12/20 12:24:35;;;;;;;47.10;26.95;;;;;;;;;;5093205;28;20032;-72
2020/12/20 12:27:02;;;;;;;47.20;27.80;;;;;;;;;;5093252;28;20060;-72
2020/12/20 12:29:28;;;;;;;39.33;24.48;;;;;;;;;;5078410;28;20539;-73
2020/12/20 12:31:53;;;;;;;43.38;25.10;;;;;;;;;;5097326;28;20040;-73
2020/12/20 12:34:19;;;;;;;50.15;30.90;;;;;;;;;;5097239;28;20039;-72
2020/12/20 12:36:44;;;;;;;88.28;50.00;;;;;;;;;;5078950;28;20089;-72
2020/12/20 12:39:10;;;;;;;60.17;34.58;;;;;;;;;;5097179;28;20036;-72
2020/12/20 12:41:36;;;;;;;47.58;27.92;;;;;;;;;;5078893;28;20043;-72
2020/12/20 12:44:01;;;;;;;37.40;21.48;;;;;;;;;;5097137;28;20028;-72
2020/12/20 12:46:27;;;;;;;37.15;22.33;;;;;;;;;;5079109;28;20474;-72
2020/12/20 12:48:53;;;;;;;45.08;26.10;;;;;;;;;;5096844;28;20032;-72
2020/12/20 12:51:19;;;;;;;42.10;24.92;;;;;;;;;;5078974;28;20042;-72
2020/12/20 12:53:47;;;;;;;43.08;24.33;;;;;;;;;;5096922;28;20452;-73
2020/12/20 12:56:14;;;;;;;73.65;44.63;;;;;;;;;;5096886;28;20035;-72
2020/12/20 12:58:40;;;;;;;52.95;31.75;;;;;;;;;;5096804;28;20371;-72
2020/12/20 13:01:06;;;;;;;37.40;22.80;;;;;;;;;;5096932;28;20028;-72
2020/12/20 13:03:31;;;;;;;34.60;21.60;;;;;;;;;;5096721;28;20028;-72
2020/12/20 13:05:57;;;;;;;45.28;23.40;;;;;;;;;;5096721;28;20048;-72
2020/12/20 13:08:22;;;;;;;75.63;37.63;;;;;;;;;;5096618;28;20063;-73
2020/12/20 13:10:48;;;;;;;46.92;25.60;;;;;;;;;;5096588;28;20024;-72
2020/12/20 13:13:13;;;;;;;42.97;24.70;;;;;;;;;;5096527;28;20036;-72
2020/12/20 13:15:40;;;;;;;36.85;21.15;;;;;;;;;;5096417;28;20032;-72
2020/12/20 13:18:06;;;;;;;42.05;26.10;;;;;;;;;;5096322;28;20040;-72
2020/12/20 13:20:31;;;;;;;44.78;25.77;;;;;;;;;;5078162;28;20062;-72
2020/12/20 13:22:57;;;;;;;38.55;21.75;;;;;;;;;;5096359;28;20383;-72
2020/12/20 13:25:22;;;;;;;47.60;26.92;;;;;;;;;;5096266;28;20028;-72
2020/12/20 13:27:48;;;;;;;45.03;26.90;;;;;;;;;;5096169;28;20491;-72
2020/12/20 13:30:13;;;;;;;47.08;25.27;;;;;;;;;;5095996;28;20032;-72
2020/12/20 13:32:39;;;;;;;44.65;24.60;;;;;;;;;;5096048;28;20093;-72
2020/12/20 13:35:05;;;;;;;41.92;24.33;;;;;;;;;;5096119;28;20032;-72
2020/12/20 13:37:30;;;;;;;46.38;27.35;;;;;;;;;;5095994;28;20039;-72
2020/12/20 13:39:56;;;;;;;40.42;24.00;;;;;;;;;;5094722;28;20024;-72
2020/12/20 13:42:22;;;;;;;41.70;22.92;;;;;;;;;;5095965;28;20036;-73
2020/12/20 13:44:48;;;;;;;43.35;23.98;;;;;;;;;;5077887;28;20501;-72
2020/12/20 13:47:13;;;;;;;48.05;27.95;;;;;;;;;;5095851;28;20041;-72
2020/12/20 13:49:39;;;;;;;37.92;23.85;;;;;;;;;;5077863;28;20036;-72
2020/12/20 13:52:04;;;;;;;67.88;38.53;;;;;;;;;;5077572;28;20553;-72
2020/12/20 13:54:30;;;;;;;43.17;26.08;;;;;;;;;;5095761;28;20036;-72
2020/12/20 13:56:56;;;;;;;43.85;25.00;;;;;;;;;;5095666;28;20086;-73
2020/12/20 13:59:22;;;;;;;38.30;21.02;;;;;;;;;;5095577;28;20057;-72
2020/12/20 14:01:50;;;;;;;37.05;22.45;;;;;;;;;;5095537;28;20032;-73
2020/12/20 14:04:16;;;;;;;41.13;23.42;;;;;;;;;;5095485;28;20046;-73
2020/12/20 14:06:42;;;;;;;59.30;32.97;;;;;;;;;;5076933;28;20130;-72
2020/12/20 14:09:08;;;;;;;69.68;40.13;;;;;;;;;;5095440;28;20441;-72
2020/12/20 14:11:33;;;;;;;51.45;28.30;;;;;;;;;;5095437;28;20028;-72
2020/12/20 14:13:59;;;;;;;55.78;29.58;;;;;;;;;;5095481;28;20393;-72
2020/12/20 14:16:25;;;;;;;49.83;26.45;;;;;;;;;;5095337;28;20028;-72
2020/12/20 14:18:50;;;;;;;70.60;39.67;;;;;;;;;;5095167;28;20075;-72
2020/12/20 14:21:15;;;;;;;54.35;28.33;;;;;;;;;;5095274;28;20030;-72
2020/12/20 14:23:43;;;;;;;65.20;34.20;;;;;;;;;;5076992;28;20394;-72
2020/12/20 14:26:15;;;;;;;48.05;25.00;;;;;;;;;;5095306;28;20070;-73
2020/12/20 14:28:41;;;;;;;46.60;25.70;;;;;;;;;;5076920;28;20040;-72
2020/12/20 14:31:09;;;;;;;46.47;23.73;;;;;;;;;;5095079;28;20028;-72
2020/12/20 14:33:34;;;;;;;37.75;21.63;;;;;;;;;;5095146;28;20040;-72
2020/12/20 14:36:00;;;;;;;47.38;30.90;;;;;;;;;;5076886;28;20066;-72
2020/12/20 14:38:25;;;;;;;84.18;58.63;;;;;;;;;;5094837;28;20035;-72
2020/12/20 14:40:50;;;;;;;63.53;37.05;;;;;;;;;;5094871;28;20476;-72
2020/12/20 14:43:16;;;;;;;30.77;20.30;;;;;;;;;;5094907;28;20032;-72
2020/12/20 14:45:41;;;;;;;34.55;21.83;;;;;;;;;;5076678;28;20032;-73
2020/12/20 14:48:08;;;;;;;46.33;28.63;;;;;;;;;;5094802;28;20123;-73
2020/12/20 14:50:34;;;;;;;37.78;22.48;;;;;;;;;;5094332;28;20035;-72
2020/12/20 14:53:00;;;;;;;32.33;18.85;;;;;;;;;;5094869;28;20032;-72
2020/12/20 14:55:27;;;;;;;49.17;25.77;;;;;;;;;;5077176;28;20020;-72
2020/12/20 14:57:53;;;;;;;42.72;25.70;;;;;;;;;;5094563;28;20048;-72
2020/12/20 15:00:19;;;;;;;60.25;35.00;;;;;;;;;;5076824;28;20530;-72
2020/12/20 15:02:46;;;;;;;40.40;23.90;;;;;;;;;;5094498;28;20490;-70
2020/12/20 15:05:14;;;;;;;38.03;23.05;;;;;;;;;;5093998;28;20391;-70
2020/12/20 15:07:41;;;;;;;41.83;23.83;;;;;;;;;;5094418;28;20074;-70
2020/12/20 15:10:07;;;;;;;47.78;27.05;;;;;;;;;;5076336;28;20482;-70
2020/12/20 15:12:33;;;;;;;51.10;27.15;;;;;;;;;;5094189;28;20028;-70
2020/12/20 15:14:59;;;;;;;44.45;26.48;;;;;;;;;;5076115;28;20520;-70
2020/12/20 15:17:25;;;;;;;39.65;23.80;;;;;;;;;;5094133;28;20028;-70
2020/12/20 15:19:50;;;;;;;42.58;23.35;;;;;;;;;;5075800;28;20089;-70
2020/12/20 15:22:16;;;;;;;45.17;25.25;;;;;;;;;;5094369;28;20036;-70
2020/12/20 15:24:41;;;;;;;46.95;25.75;;;;;;;;;;5093941;28;20051;-70
2020/12/20 15:27:07;;;;;;;41.83;23.55;;;;;;;;;;5094113;28;20032;-70
2020/12/20 15:29:34;;;;;;;59.00;31.00;;;;;;;;;;5076121;28;20062;-70
2020/12/20 15:31:59;;;;;;;50.10;27.10;;;;;;;;;;5093679;28;20087;-70
2020/12/20 15:34:26;;;;;;;72.35;37.72;;;;;;;;;;5093365;28;20105;-70
2020/12/20 15:36:56;;;;;;;67.90;38.22;;;;;;;;;;5093387;28;20424;-70
2020/12/20 15:39:23;;;;;;;57.13;31.92;;;;;;;;;;5093078;28;20450;-70
2020/12/20 15:41:50;;;;;;;62.40;35.65;;;;;;;;;;5093051;28;20035;-70
2020/12/20 15:44:15;;;;;;;68.70;38.33;;;;;;;;;;5074821;28;20416;-70
2020/12/20 15:46:41;;;;;;;56.97;30.33;;;;;;;;;;5093120;28;20111;-69
2020/12/20 15:49:06;;;;;;;49.25;27.85;;;;;;;;;;5092657;28;20028;-70
2020/12/20 15:51:32;;;;;;;50.95;26.65;;;;;;;;;;5092843;28;20032;-70
2020/12/20 15:53:58;;;;;;;50.25;26.73;;;;;;;;;;5074531;28;20020;-70
2020/12/20 15:56:23;;;;;;;56.35;29.05;;;;;;;;;;5093115;28;20064;-70
2020/12/20 15:58:49;;;;;;;46.75;26.48;;;;;;;;;;5094123;28;20058;-70
2020/12/20 16:01:14;;;;;;;42.45;23.88;;;;;;;;;;5093994;28;20032;-70
2020/12/20 16:03:40;;;;;;;43.38;24.40;;;;;;;;;;5074901;28;20052;-69
2020/12/20 16:06:06;;;;;;;43.05;24.00;;;;;;;;;;5057832;28;20040;-69
2020/12/20 16:08:34;;;;;;;52.60;28.95;;;;;;;;;;5054095;28;20049;-69
2020/12/20 16:11:00;;;;;;;60.75;33.35;;;;;;;;;;5057852;28;20040;-69
2020/12/20 16:13:25;;;;;;;98.82;52.17;;;;;;;;;;5072834;28;20017;-69
2020/12/20 16:15:51;;;;;;;79.97;44.70;;;;;;;;;;5068787;28;20402;-69
2020/12/20 16:18:25;;;;;;;180.65;102.55;;;;;;;;;;5054643;28;20032;-69
2020/12/20 16:20:51;;;;;;;166.23;89.85;;;;;;;;;;5050480;28;20040;-69
2020/12/20 16:23:16;;;;;;;162.20;88.95;;;;;;;;;;5069755;28;20058;-69
2020/12/20 16:25:42;;;;;;;142.13;76.57;;;;;;;;;;5054561;28;20478;-70
2020/12/20 16:28:07;;;;;;;130.43;61.22;;;;;;;;;;5070821;28;20021;-70
2020/12/20 16:30:34;;;;;;;101.97;48.13;;;;;;;;;;5071208;28;20123;-70
2020/12/20 16:33:00;;;;;;;76.72;39.55;;;;;;;;;;5069710;28;20479;-69
2020/12/20 16:35:26;;;;;;;100.85;46.83;;;;;;;;;;5070665;28;20069;-69
2020/12/20 16:37:52;;;;;;;115.63;51.50;;;;;;;;;;5067842;28;20029;-69
2020/12/20 16:40:17;;;;;;;100.88;46.60;;;;;;;;;;5035031;28;20075;-69
2020/12/20 16:42:43;;;;;;;77.35;39.22;;;;;;;;;;5053031;28;20029;-69
2020/12/20 16:45:09;;;;;;;84.75;42.28;;;;;;;;;;5052785;28;20087;-69
2020/12/20 16:47:34;;;;;;;81.30;41.78;;;;;;;;;;5053433;28;20021;-69
2020/12/20 16:50:00;;;;;;;113.30;49.97;;;;;;;;;;5057315;28;20040;-69
2020/12/20 16:52:26;;;;;;;85.15;39.42;;;;;;;;;;5073024;28;20028;-69
2020/12/20 16:54:51;;;;;;;97.15;40.50;;;;;;;;;;5072097;28;20040;-69
2020/12/20 16:57:17;;;;;;;82.40;38.20;;;;;;;;;;5067762;28;20024;-69
2020/12/20 16:59:43;;;;;;;71.68;37.92;;;;;;;;;;5072557;28;20052;-69
2020/12/20 17:02:09;;;;;;;73.28;38.55;;;;;;;;;;5073027;28;20085;-70
2020/12/20 17:04:34;;;;;;;60.58;33.10;;;;;;;;;;5056345;28;20112;-73
2020/12/20 17:07:00;;;;;;;63.55;36.22;;;;;;;;;;5092804;28;20131;-72
2020/12/20 17:09:27;;;;;;;57.15;31.77;;;;;;;;;;5095381;28;20044;-72
2020/12/20 17:11:53;;;;;;;57.20;32.38;;;;;;;;;;5108630;28;20146;-72
2020/12/20 17:14:19;;;;;;;52.88;30.23;;;;;;;;;;5070371;28;20402;-72
2020/12/20 17:16:48;;;;;;;61.80;31.80;;;;;;;;;;5079081;28;20052;-72
2020/12/20 17:19:14;;;;;;;73.90;41.45;;;;;;;;;;5058500;28;20082;-72
2020/12/20 17:21:39;;;;;;;69.15;38.25;;;;;;;;;;5070163;28;20030;-72
2020/12/20 17:24:05;;;;;;;61.47;34.53;;;;;;;;;;5092846;28;20066;-70
2020/12/20 17:26:31;;;;;;;58.92;33.67;;;;;;;;;;5079569;28;20028;-70
2020/12/20 17:28:58;;;;;;;79.20;43.22;;;;;;;;;;5085990;28;20039;-72
2020/12/20 17:31:23;;;;;;;50.15;28.58;;;;;;;;;;5091897;28;20036;-73
2020/12/20 17:33:49;;;;;;;53.50;30.30;;;;;;;;;;5089606;28;20517;-70
2020/12/20 17:36:16;;;;;;;50.70;32.60;;;;;;;;;;5075487;28;20039;-70
2020/12/20 17:38:43;;;;;;;39.10;25.92;;;;;;;;;;5075313;28;20079;-70
2020/12/20 17:41:10;;;;;;;37.72;23.55;;;;;;;;;;5075566;28;20064;-70
2020/12/20 17:43:36;;;;;;;48.47;28.70;;;;;;;;;;5075923;28;20119;-71
2020/12/20 17:46:02;;;;;;;80.75;40.70;;;;;;;;;;5075446;28;20029;-71
2020/12/20 17:48:28;;;;;;;49.95;26.10;;;;;;;;;;5043718;28;20372;-72
2020/12/20 17:50:55;;;;;;;67.32;34.47;;;;;;;;;;5074315;28;20024;-72
2020/12/20 17:53:21;;;;;;;72.45;41.05;;;;;;;;;;5040796;28;20483;-71
2020/12/20 17:55:47;;;;;;;115.05;67.82;;;;;;;;;;5075200;28;20039;-71
2020/12/20 17:58:14;;;;;;;182.02;101.55;;;;;;;;;;5074901;28;20436;-71
2020/12/20 18:00:40;;;;;;;80.70;43.20;;;;;;;;;;5057551;28;20017;-72
2020/12/20 18:03:05;;;;;;;108.22;56.15;;;;;;;;;;5075401;28;20094;-70
2020/12/20 18:05:32;;;;;;;70.95;36.10;;;;;;;;;;5056643;28;20401;-71
2020/12/20 18:07:58;;;;;;;33.53;22.08;;;;;;;;;;5057309;28;20097;-66
2020/12/20 18:10:24;;;;;;;36.38;21.80;;;;;;;;;;5074909;28;20086;-69
2020/12/20 18:12:50;;;;;;;49.22;24.42;;;;;;;;;;5073190;28;20044;-71
2020/12/20 18:15:16;;;;;;;60.67;30.85;;;;;;;;;;5074855;28;20501;-69
2020/12/20 18:17:49;;;;;;;46.58;27.05;;;;;;;;;;5056650;28;20044;-71
2020/12/20 18:20:14;;;;;;;71.25;36.70;;;;;;;;;;5074720;28;20040;-71
2020/12/20 18:22:41;;;;;;;86.60;42.97;;;;;;;;;;5074847;28;20032;-68
2020/12/20 18:25:07;;;;;;;104.65;46.83;;;;;;;;;;5056549;28;20028;-69
2020/12/20 18:27:33;;;;;;;64.10;31.52;;;;;;;;;;5073624;28;20123;-69
2020/12/20 18:29:58;;;;;;;65.53;32.42;;;;;;;;;;5073250;28;20117;-70
2020/12/20 18:32:24;;;;;;;43.88;25.10;;;;;;;;;;5056453;28;20043;-70
2020/12/20 18:34:49;;;;;;;60.38;33.15;;;;;;;;;;5056589;28;20048;-70
2020/12/20 18:37:15;;;;;;;48.92;29.88;;;;;;;;;;5056210;28;20064;-70
2020/12/20 18:39:42;;;;;;;52.50;35.53;;;;;;;;;;5074355;28;20514;-70
2020/12/20 18:42:16;;;;;;;51.92;31.85;;;;;;;;;;5056555;28;20029;-70
2020/12/20 18:44:42;;;;;;;57.58;32.53;;;;;;;;;;5053750;28;20048;-70
2020/12/20 18:47:08;;;;;;;66.45;36.13;;;;;;;;;;5055592;28;20036;-70
2020/12/20 18:49:34;;;;;;;64.07;34.45;;;;;;;;;;5074147;28;20540;-70
2020/12/20 18:52:02;;;;;;;59.35;34.10;;;;;;;;;;5074009;28;20364;-70
2020/12/20 18:54:28;;;;;;;325.38;175.65;;;;;;;;;;5073238;28;20039;-70
2020/12/20 18:56:53;;;;;;;111.68;48.60;;;;;;;;;;5055696;28;20036;-70
2020/12/20 18:59:21;;;;;;;73.50;33.80;;;;;;;;;;5073955;28;20120;-70
2020/12/20 19:01:46;;;;;;;90.35;38.28;;;;;;;;;;5073950;28;20107;-70
2020/12/20 19:04:13;;;;;;;57.85;29.08;;;;;;;;;;5087418;28;20110;-74
2020/12/20 19:06:40;;;;;;;36.83;23.45;;;;;;;;;;5075268;28;20442;-70
2020/12/20 19:09:09;;;;;;;48.85;28.88;;;;;;;;;;5094125;28;20555;-70
2020/12/20 19:11:34;;;;;;;92.10;50.30;;;;;;;;;;5075703;28;20119;-70
2020/12/20 19:14:02;;;;;;;235.13;155.52;;;;;;;;;;5075788;28;20036;-70
2020/12/20 19:16:36;;;;;;;76.63;49.08;;;;;;;;;;5075097;28;20105;-68